Time;durP1;ratioP1;P1;durP2;ratioP2;P2;SDS_P1;SDS_P2;PMS_P1;PMS_P2;Temp;Humidity;BMP_temperature;BMP_pressure;BME280_temperature;BME280_humidity;BME280_pressure;Samples;Min_cycle;Max_cycle;Signal;HPM_P1;HPM_P2
2022/04/28 00:01:52;;;;;;;;;;;;;;;7.49;71.94;97248.41;5096485;28;20035;-73
2022/04/28 00:04:18;;;;;;;;;;;;;;;7.49;71.87;97251.00;5096300;28;20439;-73
2022/04/28 00:06:44;;;;;;;;;;;;;;;7.50;71.44;97244.00;5096635;28;20360;-73
2022/04/28 00:09:09;;;;;;;;;;;;;;;7.47;71.60;97245.16;5096258;28;19976;-73
2022/04/28 00:11:35;;;;;;;;;;;;;;;7.47;71.40;97239.13;5096388;28;20433;-73
2022/04/28 00:14:01;;;;;;;;;;;;;;;7.47;71.68;97246.97;5096386;28;20087;-73
2022/04/28 00:16:27;;;;;;;;;;;;;;;7.46;72.00;97246.16;5096329;28;19953;-74
2022/04/28 00:18:54;;;;;;;;;;;;;;;7.44;71.78;97250.75;5096194;28;19960;-73
2022/04/28 00:21:20;;;;;;;;;;;;;;;7.43;72.06;97245.69;5096025;28;19958;-73
2022/04/28 00:23:46;;;;;;;;;;;;;;;7.40;72.20;97246.06;5078158;28;19958;-73
2022/04/28 00:26:12;;;;;;;;;;;;;;;7.39;72.85;97249.66;5096309;28;19951;-73
2022/04/28 00:28:38;;;;;;;;;;;;;;;7.36;72.36;97245.59;5096003;28;19960;-73
2022/04/28 00:31:04;;;;;;;;;;;;;;;7.34;72.29;97247.59;5095817;28;20321;-73
2022/04/28 00:33:30;;;;;;;;;;;;;;;7.32;72.50;97252.16;5095802;28;20328;-73
2022/04/28 00:36:22;;;;;;;;;;;;;;;7.31;72.46;97247.94;5063461;28;20387;-73
2022/04/28 00:38:48;;;;;;;;;;;;;;;7.30;73.18;97241.91;5095985;28;20012;-74
2022/04/28 00:41:14;;;;;;;;;;;;;;;7.30;72.82;97238.47;5084929;28;19960;-73
2022/04/28 00:43:49;;;;;;;;;;;;;;;7.30;73.36;97248.94;5095729;28;19958;-74
2022/04/28 00:46:15;;;;;;;;;;;;;;;7.28;73.28;97243.06;5095821;28;19962;-73
2022/04/28 00:51:26;;;;;;;;;;;;;;;7.29;72.96;97239.50;5095671;28;19954;-73
2022/04/28 00:53:53;;;;;;;;;;;;;;;7.29;73.23;97245.50;5095370;28;19966;-73
2022/04/28 00:56:19;;;;;;;;;;;;;;;7.30;72.79;97241.91;5095719;28;20333;-73
2022/04/28 00:58:47;;;;;;;;;;;;;;;7.28;73.27;97245.69;5095699;28;20008;-73
2022/04/28 01:01:13;;;;;;;;;;;;;;;7.28;73.15;97240.47;5095326;28;19952;-73
2022/04/28 01:03:39;;;;;;;;;;;;;;;7.28;73.23;97237.84;5095165;28;19971;-73
2022/04/28 01:06:05;;;;;;;;;;;;;;;7.27;72.54;97233.63;5095336;28;20326;-73
2022/04/28 01:08:31;;;;;;;;;;;;;;;7.26;72.87;97242.44;5094959;28;19960;-73
2022/04/28 01:10:57;;;;;;;;;;;;;;;7.25;72.98;97244.25;5095064;28;20179;-73
2022/04/28 01:13:23;;;;;;;;;;;;;;;7.26;72.90;97237.22;5094989;28;20002;-73
2022/04/28 01:15:49;;;;;;;;;;;;;;;7.25;73.10;97249.47;5095155;28;19958;-74
2022/04/28 01:18:16;;;;;;;;;;;;;;;7.24;72.84;97241.81;5094796;28;20399;-73
2022/04/28 01:20:43;;;;;;;;;;;;;;;7.22;72.80;97239.34;5095042;28;19964;-73
2022/04/28 01:23:09;;;;;;;;;;;;;;;7.21;72.71;97232.53;5094476;28;20299;-73
2022/04/28 01:25:35;;;;;;;;;;;;;;;7.19;72.78;97237.13;5076921;28;20430;-74
2022/04/28 01:28:01;;;;;;;;;;;;;;;7.19;72.79;97236.31;5095104;28;19956;-73
2022/04/28 01:30:27;;;;;;;;;;;;;;;7.15;72.72;97233.25;5094669;28;20018;-73
2022/04/28 01:32:56;;;;;;;;;;;;;;;7.13;72.66;97229.19;5094652;28;19955;-73
2022/04/28 01:35:22;;;;;;;;;;;;;;;7.10;72.84;97232.97;5094905;28;19947;-73
2022/04/28 01:37:48;;;;;;;;;;;;;;;7.08;72.91;97235.75;5094592;28;19968;-73
2022/04/28 01:40:14;;;;;;;;;;;;;;;7.05;72.91;97230.88;5094479;28;19952;-73
2022/04/28 01:42:45;;;;;;;;;;;;;;;7.03;72.60;97232.03;5094732;28;20338;-73
2022/04/28 01:45:11;;;;;;;;;;;;;;;6.99;73.35;97229.00;5094422;28;19951;-73
2022/04/28 01:47:37;;;;;;;;;;;;;;;6.93;73.19;97232.28;5094365;28;19961;-73
2022/04/28 01:50:03;;;;;;;;;;;;;;;6.89;73.25;97231.03;5094332;28;20339;-73
2022/04/28 01:55:15;;;;;;;;;;;;;;;6.79;73.39;97241.69;5094811;28;20405;-73
2022/04/28 01:57:41;;;;;;;;;;;;;;;6.73;72.54;97231.13;5094010;28;20347;-74
2022/04/28 02:00:07;;;;;;;;;;;;;;;6.65;73.24;97234.59;5094270;28;20050;-73
2022/04/28 02:02:34;;;;;;;;;;;;;;;6.61;74.03;97233.31;5094378;28;19960;-73
2022/04/28 02:05:01;;;;;;;;;;;;;;;6.58;74.40;97234.50;5094249;28;19980;-73
2022/04/28 02:07:28;;;;;;;;;;;;;;;6.56;73.93;97228.63;5094173;28;19963;-73
2022/04/28 02:09:54;;;;;;;;;;;;;;;6.56;74.78;97238.25;5094096;28;19972;-73
2022/04/28 02:12:20;;;;;;;;;;;;;;;6.56;74.74;97222.63;5094182;28;19958;-73
2022/04/28 02:14:46;;;;;;;;;;;;;;;6.56;74.43;97222.63;5094157;28;19957;-73
2022/04/28 02:17:17;;;;;;;;;;;;;;;6.56;74.64;97235.66;5093874;28;20435;-73
2022/04/28 02:19:43;;;;;;;;;;;;;;;6.55;74.12;97232.25;5093941;28;19949;-73
2022/04/28 02:22:08;;;;;;;;;;;;;;;6.53;74.47;97231.59;5093968;28;20009;-73
2022/04/28 02:24:34;;;;;;;;;;;;;;;6.49;73.60;97225.91;5093825;28;19954;-73
2022/04/28 02:27:00;;;;;;;;;;;;;;;6.47;74.40;97233.09;5093729;28;19971;-73
2022/04/28 02:29:26;;;;;;;;;;;;;;;6.44;75.35;97241.22;5093695;28;19971;-73
2022/04/28 02:31:52;;;;;;;;;;;;;;;6.43;75.76;97237.03;5093904;28;19958;-73
2022/04/28 02:34:18;;;;;;;;;;;;;;;6.43;75.27;97234.41;5093677;28;20108;-73
2022/04/28 02:36:44;;;;;;;;;;;;;;;6.44;75.14;97230.81;5092584;28;20008;-73
2022/04/28 02:39:10;;;;;;;;;;;;;;;6.43;75.13;97234.41;5093756;28;19956;-74
2022/04/28 02:41:36;;;;;;;;;;;;;;;6.42;74.67;97231.97;5093675;28;19953;-73
2022/04/28 02:44:02;;;;;;;;;;;;;;;6.40;75.04;97233.94;5093587;28;20436;-73
2022/04/28 02:46:29;;;;;;;;;;;;;;;6.39;75.42;97232.34;5093110;28;19962;-73
2022/04/28 02:48:55;;;;;;;;;;;;;;;6.39;75.21;97238.34;5094016;28;19966;-73
2022/04/28 02:51:21;;;;;;;;;;;;;;;6.38;75.30;97235.91;5093716;28;20375;-73
2022/04/28 02:53:47;;;;;;;;;;;;;;;6.36;75.52;97238.69;5093429;28;20381;-73
2022/04/28 02:56:13;;;;;;;;;;;;;;;6.35;75.97;97238.88;5093929;28;20432;-72
2022/04/28 02:58:39;;;;;;;;;;;;;;;6.35;76.23;97241.47;5095516;28;19978;-73
2022/04/28 03:01:04;;;;;;;;;;;;;;;6.32;75.35;97236.59;5097833;28;20332;-73
2022/04/28 03:03:31;;;;;;;;;;;;;;;6.28;75.95;97241.34;5089798;28;20369;-73
2022/04/28 03:11:25;;;;;;;;;;;;;;;6.22;77.21;97242.03;5097572;28;19953;-73
2022/04/28 03:13:51;;;;;;;;;;;;;;;6.22;76.69;97244.63;5097315;28;20435;-73
2022/04/28 03:16:17;;;;;;;;;;;;;;;6.20;76.11;97250.00;5097679;28;19950;-73
2022/04/28 03:18:44;;;;;;;;;;;;;;;6.20;76.24;97242.19;5097173;28;20329;-73
2022/04/28 03:21:11;;;;;;;;;;;;;;;6.22;76.05;97253.25;5096842;28;19960;-73
2022/04/28 03:23:37;;;;;;;;;;;;;;;6.20;75.87;97250.00;5097171;28;19961;-73
2022/04/28 03:26:03;;;;;;;;;;;;;;;6.19;75.89;97250.97;5097421;28;19957;-73
2022/04/28 03:28:34;;;;;;;;;;;;;;;6.20;76.14;97254.41;5097144;28;19976;-73
2022/04/28 03:31:01;;;;;;;;;;;;;;;6.16;75.75;97251.31;5097339;28;20338;-73
2022/04/28 03:33:27;;;;;;;;;;;;;;;6.13;75.97;97251.66;5096996;28;19950;-73
2022/04/28 03:35:53;;;;;;;;;;;;;;;6.10;76.87;97259.81;5097064;28;19973;-72
2022/04/28 03:38:19;;;;;;;;;;;;;;;6.07;76.73;97254.97;5096873;28;19959;-73
2022/04/28 03:40:45;;;;;;;;;;;;;;;6.05;77.74;97256.91;5096943;28;19958;-73
2022/04/28 03:43:12;;;;;;;;;;;;;;;6.01;76.51;97261.66;5097195;28;19947;-73
2022/04/28 03:45:38;;;;;;;;;;;;;;;6.00;77.00;97254.00;5096880;28;19953;-74
2022/04/28 03:48:05;;;;;;;;;;;;;;;5.98;77.42;97256.75;5084500;28;19952;-73
2022/04/28 03:50:31;;;;;;;;;;;;;;;5.98;77.43;97261.16;5078582;28;19968;-72
2022/04/28 03:52:57;;;;;;;;;;;;;;;5.96;77.15;97260.50;5096567;28;19956;-73
2022/04/28 03:55:23;;;;;;;;;;;;;;;5.94;77.20;97267.66;5096170;28;19953;-72
2022/04/28 03:57:49;;;;;;;;;;;;;;;5.92;76.71;97257.41;5096634;28;19962;-72
2022/04/28 04:00:15;;;;;;;;;;;;;;;5.90;77.37;97270.59;5096647;28;20053;-72
2022/04/28 04:02:41;;;;;;;;;;;;;;;5.88;77.45;97269.97;5096586;28;19962;-73
2022/04/28 04:05:07;;;;;;;;;;;;;;;5.87;77.01;97268.31;5096852;28;20431;-73
2022/04/28 04:07:33;;;;;;;;;;;;;;;5.86;77.05;97260.69;5096544;28;19958;-73
2022/04/28 04:09:59;;;;;;;;;;;;;;;5.85;77.04;97269.47;5096459;28;19972;-73
2022/04/28 04:12:25;;;;;;;;;;;;;;;5.86;77.15;97271.91;5096360;28;19955;-72
2022/04/28 04:14:54;;;;;;;;;;;;;;;5.85;77.05;97266.88;5096427;28;19955;-73
2022/04/28 04:17:21;;;;;;;;;;;;;;;5.85;77.12;97274.69;5095425;28;20520;-73
2022/04/28 04:19:47;;;;;;;;;;;;;;;5.84;77.38;97271.28;5096119;28;20326;-73
2022/04/28 04:22:13;;;;;;;;;;;;;;;5.85;77.12;97275.47;5096536;28;19956;-73
2022/04/28 04:24:40;;;;;;;;;;;;;;;5.87;77.10;97277.94;5096128;28;20424;-73
2022/04/28 04:27:07;;;;;;;;;;;;;;;5.89;77.36;97288.97;5096219;28;19959;-73
2022/04/28 04:29:33;;;;;;;;;;;;;;;5.90;77.85;97288.03;5095926;28;19968;-73
2022/04/28 04:34:46;;;;;;;;;;;;;;;5.93;77.26;97285.06;5095876;28;19961;-73
2022/04/28 04:37:13;;;;;;;;;;;;;;;5.94;77.21;97285.88;5096257;28;19959;-73
2022/04/28 04:39:40;;;;;;;;;;;;;;;5.96;77.56;97294.34;5095886;28;20341;-73
2022/04/28 04:42:06;;;;;;;;;;;;;;;5.98;77.64;97293.22;5095851;28;19956;-73
2022/04/28 04:44:32;;;;;;;;;;;;;;;6.08;77.61;97295.63;5095779;28;19952;-73
2022/04/28 04:46:58;;;;;;;;;;;;;;;6.30;76.85;97302.72;5095484;28;19958;-72
2022/04/28 04:49:24;;;;;;;;;;;;;;;6.63;76.15;97301.72;5095550;28;19947;-73
2022/04/28 04:51:50;;;;;;;;;;;;;;;7.01;75.28;97301.81;5077896;28;19962;-73
2022/04/28 04:54:16;;;;;;;;;;;;;;;7.40;74.33;97293.84;5095716;28;20320;-73
2022/04/28 04:56:42;;;;;;;;;;;;;;;7.80;73.38;97291.03;5095313;28;19956;-73
2022/04/28 04:59:08;;;;;;;;;;;;;;;8.18;72.38;97296.97;5094581;28;19947;-73
2022/04/28 05:01:34;;;;;;;;;;;;;;;8.55;71.33;97287.41;5095633;28;19948;-73
2022/04/28 05:04:00;;;;;;;;;;;;;;;8.90;70.37;97277.91;5095730;28;20033;-73
2022/04/28 05:06:26;;;;;;;;;;;;;;;9.29;69.47;97275.84;5094078;28;20323;-73
2022/04/28 05:08:52;;;;;;;;;;;;;;;9.65;68.70;97277.50;5095467;28;19962;-73
2022/04/28 05:11:18;;;;;;;;;;;;;;;10.03;67.65;97271.91;5095100;28;19964;-73
2022/04/28 05:13:44;;;;;;;;;;;;;;;10.41;66.72;97268.88;5095210;28;20407;-73
2022/04/28 05:16:10;;;;;;;;;;;;;;;10.76;66.16;97259.88;5095069;28;20044;-74
2022/04/28 05:18:36;;;;;;;;;;;;;;;11.12;65.17;97255.28;5079406;28;19957;-74
2022/04/28 05:21:03;;;;;;;;;;;;;;;11.47;64.31;97252.47;5094739;28;19966;-73
2022/04/28 05:23:29;;;;;;;;;;;;;;;11.81;63.28;97247.97;5094890;28;19955;-73
2022/04/28 05:26:04;;;;;;;;;;;;;;;12.07;62.07;97247.13;5094676;28;19965;-73
2022/04/28 05:28:30;;;;;;;;;;;;;;;12.35;61.73;97241.56;5093726;28;20045;-73
2022/04/28 05:30:56;;;;;;;;;;;;;;;12.64;61.03;97237.56;5094899;28;20015;-73
2022/04/28 05:33:22;;;;;;;;;;;;;;;12.91;59.95;97229.50;5094794;28;19969;-73
2022/04/28 05:35:48;;;;;;;;;;;;;;;13.15;58.96;97220.00;5094792;28;19960;-74
2022/04/28 05:38:14;;;;;;;;;;;;;;;13.43;59.26;97224.06;5094689;28;19952;-74
2022/04/28 05:40:40;;;;;;;;;;;;;;;13.66;58.97;97226.06;5094480;28;20432;-73
2022/04/28 05:45:51;;;;;;;;;;;;;;;14.17;57.69;97207.25;5094628;28;19964;-73
2022/04/28 05:48:18;;;;;;;;;;;;;;;14.39;56.90;97204.94;5094603;28;20407;-74
2022/04/28 05:50:45;;;;;;;;;;;;;;;14.62;56.46;97206.09;5093958;28;19962;-74
2022/04/28 05:53:11;;;;;;;;;;;;;;;14.83;55.48;97194.22;5094409;28;20323;-74
2022/04/28 05:55:37;;;;;;;;;;;;;;;14.98;54.69;97194.56;5094711;28;20317;-74
2022/04/28 05:58:03;;;;;;;;;;;;;;;15.11;53.68;97182.19;5093756;28;19971;-74
2022/04/28 06:00:30;;;;;;;;;;;;;;;15.26;54.31;97194.94;5094349;28;19969;-74
2022/04/28 06:02:56;;;;;;;;;;;;;;;15.45;54.05;97200.94;5093969;28;20336;-74
2022/04/28 06:05:22;;;;;;;;;;;;;;;15.57;53.23;97194.59;5079612;28;19948;-74
2022/04/28 06:07:49;;;;;;;;;;;;;;;15.63;53.15;97193.69;5076289;28;19964;-74
2022/04/28 06:10:15;;;;;;;;;;;;;;;15.75;51.99;97200.84;5094395;28;19971;-74
2022/04/28 06:12:41;;;;;;;;;;;;;;;15.80;50.90;97222.09;5094230;28;19960;-74
2022/04/28 06:15:08;;;;;;;;;;;;;;;15.86;52.17;97238.88;5094227;28;19959;-73
2022/04/28 06:17:36;;;;;;;;;;;;;;;15.97;51.68;97246.78;5090983;28;19944;-73
2022/04/28 06:20:03;;;;;;;;;;;;;;;16.06;52.28;97257.81;5094052;28;20011;-74
2022/04/28 06:22:29;;;;;;;;;;;;;;;16.16;51.16;97239.50;5093928;28;19963;-74
2022/04/28 06:24:56;;;;;;;;;;;;;;;16.24;50.61;97251.59;5094432;28;19955;-74
2022/04/28 06:27:22;;;;;;;;;;;;;;;16.35;50.45;97255.22;5094207;28;19951;-74
2022/04/28 06:29:49;;;;;;;;;;;;;;;16.47;49.79;97241.97;5093309;28;20002;-75
2022/04/28 06:32:16;;;;;;;;;;;;;;;16.56;48.03;97227.31;5093351;28;19972;-74
2022/04/28 06:34:45;;;;;;;;;;;;;;;16.61;49.02;97248.59;5093609;28;19955;-74
2022/04/28 06:37:14;;;;;;;;;;;;;;;16.59;48.32;97240.09;5093836;28;19952;-74
2022/04/28 06:39:40;;;;;;;;;;;;;;;16.69;50.12;97258.78;5093757;28;19963;-75
2022/04/28 06:42:07;;;;;;;;;;;;;;;16.82;48.98;97242.66;5093935;28;20323;-74
2022/04/28 06:44:33;;;;;;;;;;;;;;;16.87;48.89;97271.06;5093944;28;20325;-74
2022/04/28 06:46:59;;;;;;;;;;;;;;;16.81;48.77;97311.75;5093863;28;19942;-74
2022/04/28 06:49:57;;;;;;;;;;;;;;;16.84;47.40;97306.81;5069933;28;19954;-74
2022/04/28 06:52:23;;;;;;;;;;;;;;;16.82;46.38;97303.59;5094228;28;20327;-74
2022/04/28 06:54:49;;;;;;;;;;;;;;;16.61;46.48;97310.31;5093694;28;20414;-75
2022/04/28 06:57:15;;;;;;;;;;;;;;;16.50;47.93;97316.41;5093680;28;20486;-74
2022/04/28 06:59:41;;;;;;;;;;;;;;;16.40;45.86;97306.44;5093476;28;19956;-74
2022/04/28 07:02:08;;;;;;;;;;;;;;;16.44;49.69;97339.34;5093502;28;20036;-75
2022/04/28 07:04:34;;;;;;;;;;;;;;;16.51;46.15;97318.03;5093412;28;19986;-74
2022/04/28 07:07:00;;;;;;;;;;;;;;;16.67;47.53;97328.94;5093657;28;19957;-74
2022/04/28 07:09:26;;;;;;;;;;;;;;;16.57;47.58;97335.66;5093469;28;20010;-74
2022/04/28 07:11:52;;;;;;;;;;;;;;;16.58;48.94;97350.47;5093507;28;19973;-74
2022/04/28 07:14:18;;;;;;;;;;;;;;;16.72;46.82;97335.16;5093373;28;19962;-75
2022/04/28 07:16:44;;;;;;;;;;;;;;;16.78;46.28;97326.25;5093300;28;19965;-74
2022/04/28 07:19:10;;;;;;;;;;;;;;;16.71;47.46;97320.28;5093496;28;20475;-74
2022/04/28 07:21:36;;;;;;;;;;;;;;;16.62;45.75;97327.00;5093516;28;20376;-74
2022/04/28 07:24:01;;;;;;;;;;;;;;;16.53;44.02;97315.97;5093059;28;19957;-75
2022/04/28 07:26:28;;;;;;;;;;;;;;;16.64;47.48;97344.25;5075622;28;19959;-74
2022/04/28 07:28:54;;;;;;;;;;;;;;;16.58;45.24;97344.38;5093464;28;19967;-75
2022/04/28 07:31:20;;;;;;;;;;;;;;;16.41;43.03;97328.41;5093469;28;19975;-74
2022/04/28 07:33:46;;;;;;;;;;;;;;;16.43;44.48;97353.63;5093379;28;20035;-74
2022/04/28 07:36:14;;;;;;;;;;;;;;;16.51;46.53;97359.59;5093199;28;20397;-75
2022/04/28 07:38:41;;;;;;;;;;;;;;;16.45;45.94;97353.41;5093617;28;19980;-75
2022/04/28 07:41:07;;;;;;;;;;;;;;;16.51;47.80;97362.25;5092914;28;19957;-74
2022/04/28 07:43:33;;;;;;;;;;;;;;;16.64;46.01;97357.50;5093292;28;19948;-74
2022/04/28 07:45:59;;;;;;;;;;;;;;;16.59;42.60;97322.19;5097223;28;19962;-74
2022/04/28 07:48:25;;;;;;;;;;;;;;;16.62;44.21;97343.69;5096726;28;19967;-74
2022/04/28 07:50:51;;;;;;;;;;;;;;;16.76;45.18;97356.69;5096684;28;20483;-74
2022/04/28 07:53:17;;;;;;;;;;;;;;;16.89;44.66;97348.47;5096887;28;19961;-74
2022/04/28 07:55:43;;;;;;;;;;;;;;;16.98;44.52;97351.56;5096567;28;19959;-74
2022/04/28 07:58:09;;;;;;;;;;;;;;;17.02;43.25;97337.59;5096598;28;20312;-74
2022/04/28 08:00:35;;;;;;;;;;;;;;;17.15;44.92;97351.59;5079080;28;20405;-74
2022/04/28 08:03:01;;;;;;;;;;;;;;;17.19;45.00;97358.03;5096522;28;20044;-75
2022/04/28 08:05:27;;;;;;;;;;;;;;;17.26;44.01;97361.34;5095313;28;19993;-74
2022/04/28 08:07:52;;;;;;;;;;;;;;;17.46;45.23;97366.19;5096607;28;19961;-74
2022/04/28 08:10:18;;;;;;;;;;;;;;;17.52;40.10;97353.84;5096637;28;20373;-74
2022/04/28 08:13:05;;;;;;;;;;;;;;;17.50;44.41;97396.50;5044040;28;19977;-75
2022/04/28 08:15:31;;;;;;;;;;;;;;;17.30;40.29;97373.06;5096526;28;20335;-75
2022/04/28 08:17:56;;;;;;;;;;;;;;;17.37;42.58;97380.91;5096188;28;20418;-75
2022/04/28 08:20:22;;;;;;;;;;;;;;;17.21;39.79;97387.75;5096293;28;19967;-74
2022/04/28 08:22:48;;;;;;;;;;;;;;;17.05;39.09;97373.44;5096274;28;20015;-74
2022/04/28 08:25:14;;;;;;;;;;;;;;;16.99;39.97;97388.41;5095864;28;20002;-75
2022/04/28 08:27:40;;;;;;;;;;;;;;;17.01;41.93;97399.59;5095402;28;19964;-74
2022/04/28 08:30:06;;;;;;;;;;;;;;;17.14;42.59;97392.41;5096202;28;19956;-74
2022/04/28 08:32:33;;;;;;;;;;;;;;;17.09;40.71;97387.78;5096088;28;19963;-74
2022/04/28 08:34:59;;;;;;;;;;;;;;;16.97;40.27;97379.09;5095980;28;20457;-74
2022/04/28 08:37:25;;;;;;;;;;;;;;;16.77;37.55;97374.16;5095230;28;19964;-74
2022/04/28 08:39:51;;;;;;;;;;;;;;;16.79;40.87;97393.28;5095878;28;20056;-74
2022/04/28 08:42:18;;;;;;;;;;;;;;;16.76;38.25;97383.16;5096164;28;19959;-74
2022/04/28 08:44:44;;;;;;;;;;;;;;;16.92;39.60;97397.53;5096269;28;19957;-74
2022/04/28 08:47:10;;;;;;;;;;;;;;;16.98;40.55;97396.59;5095825;28;19969;-74
2022/04/28 08:49:37;;;;;;;;;;;;;;;16.99;40.88;97395.56;5077923;28;19952;-75
2022/04/28 08:52:04;;;;;;;;;;;;;;;17.07;39.02;97403.13;5095518;28;19979;-75
2022/04/28 08:54:31;;;;;;;;;;;;;;;17.24;38.88;97400.56;5095447;28;19954;-75
2022/04/28 08:56:57;;;;;;;;;;;;;;;17.42;40.79;97412.78;5094617;28;19962;-74
2022/04/28 08:59:24;;;;;;;;;;;;;;;17.33;38.21;97393.03;5095500;28;19959;-76
2022/04/28 09:01:51;;;;;;;;;;;;;;;17.23;38.51;97414.84;5085847;28;20340;-74
2022/04/28 09:04:22;;;;;;;;;;;;;;;17.31;39.49;97408.34;5095331;28;19985;-75
2022/04/28 09:06:52;;;;;;;;;;;;;;;17.44;39.59;97414.16;5095206;28;19959;-75
2022/04/28 09:09:19;;;;;;;;;;;;;;;17.44;40.13;97411.50;5095293;28;19957;-75
2022/04/28 09:11:45;;;;;;;;;;;;;;;17.17;33.00;97384.75;5095322;28;20449;-74
2022/04/28 09:14:20;;;;;;;;;;;;;;;17.11;36.73;97406.13;5095152;28;19962;-75
2022/04/28 09:16:45;;;;;;;;;;;;;;;16.99;33.10;97395.56;5095438;28;19946;-74
2022/04/28 09:19:34;;;;;;;;;;;;;;;16.83;37.32;97407.69;5094929;28;19947;-75
2022/04/28 09:22:12;;;;;;;;;;;;;;;16.61;35.15;97402.19;5094952;28;20435;-75
2022/04/28 09:24:43;;;;;;;;;;;;;;;16.57;35.88;97393.91;5094992;28;19944;-75
2022/04/28 09:27:09;;;;;;;;;;;;;;;16.77;37.89;97413.91;5094862;28;19957;-74
2022/04/28 09:29:39;;;;;;;;;;;;;;;16.96;36.33;97396.03;5094807;28;20380;-75
2022/04/28 09:32:06;;;;;;;;;;;;;;;16.97;36.40;97405.59;5093614;28;20334;-74
2022/04/28 09:34:32;;;;;;;;;;;;;;;17.00;35.24;97395.31;5094664;28;19960;-74
2022/04/28 09:36:59;;;;;;;;;;;;;;;17.03;33.42;97386.91;5094916;28;20406;-74
2022/04/28 09:42:35;;;;;;;;;;;;;;;16.73;35.08;97404.81;5022521;28;19955;-74
2022/04/28 09:45:02;;;;;;;;;;;;;;;16.70;35.29;97400.00;5082686;28;20328;-74
2022/04/28 09:47:31;;;;;;;;;;;;;;;16.59;35.82;97404.28;5094522;28;19951;-74
2022/04/28 09:49:56;;;;;;;;;;;;;;;16.62;34.60;97395.84;5094393;28;20429;-73
2022/04/28 09:52:31;;;;;;;;;;;;;;;16.77;34.59;97392.72;5094443;28;20000;-74
2022/04/28 09:54:59;;;;;;;;;;;;;;;16.96;34.24;97396.03;5094335;28;19966;-74
2022/04/28 09:57:25;;;;;;;;;;;;;;;16.98;34.83;97400.03;5094597;28;19950;-74
2022/04/28 09:59:55;;;;;;;;;;;;;;;16.96;33.81;97388.88;5094368;28;19961;-74
2022/04/28 10:02:27;;;;;;;;;;;;;;;16.83;36.11;97408.50;5094541;28;19963;-74
2022/04/28 10:04:54;;;;;;;;;;;;;;;16.83;34.83;97402.41;5094132;28;19981;-74
2022/04/28 10:07:20;;;;;;;;;;;;;;;17.02;36.19;97405.69;5093937;28;19957;-74
2022/04/28 10:09:50;;;;;;;;;;;;;;;17.04;35.81;97398.31;5094001;28;19949;-74
2022/04/28 10:12:20;;;;;;;;;;;;;;;17.24;35.58;97390.75;5094115;28;19961;-74
2022/04/28 10:14:47;;;;;;;;;;;;;;;17.40;34.99;97391.81;5093936;28;20330;-74
2022/04/28 10:17:22;;;;;;;;;;;;;;;17.33;34.23;97387.72;5093823;28;19957;-74
2022/04/28 10:19:53;;;;;;;;;;;;;;;17.19;34.31;97388.00;5093744;28;19964;-74
2022/04/28 10:22:21;;;;;;;;;;;;;;;17.18;34.35;97388.25;5094024;28;19953;-74
2022/04/28 10:33:17;;;;;;;;;;;;;;;17.66;35.30;97389.63;5093568;28;19968;-74
2022/04/28 10:35:44;;;;;;;;;;;;;;;17.73;35.30;97382.31;5075989;28;20444;-73
2022/04/28 10:38:22;;;;;;;;;;;;;;;17.87;33.47;97374.03;5093398;28;19952;-74
2022/04/28 10:40:58;;;;;;;;;;;;;;;17.82;34.27;97358.81;5093379;28;19959;-74
2022/04/28 10:43:27;;;;;;;;;;;;;;;17.87;32.62;97363.44;5093919;28;19956;-74
2022/04/28 10:45:55;;;;;;;;;;;;;;;17.87;29.49;97361.59;5093550;28;19957;-74
2022/04/28 10:48:29;;;;;;;;;;;;;;;17.94;32.37;97386.13;5093491;28;19956;-74
2022/04/28 10:51:10;;;;;;;;;;;;;;;18.18;32.41;97385.94;5093239;28;20421;-74
2022/04/28 10:53:54;;;;;;;;;;;;;;;18.15;29.52;97373.16;5093727;28;20408;-74
2022/04/28 10:56:21;;;;;;;;;;;;;;;18.30;32.74;97373.38;5093301;28;19960;-74
2022/04/28 10:58:47;;;;;;;;;;;;;;;18.60;32.93;97374.81;5093424;28;20306;-74
2022/04/28 11:01:26;;;;;;;;;;;;;;;18.66;30.18;97366.66;5092692;28;19953;-74
2022/04/28 11:03:57;;;;;;;;;;;;;;;18.56;31.73;97376.34;5093611;28;19968;-74
2022/04/28 11:06:28;;;;;;;;;;;;;;;18.25;29.21;97381.28;5078228;28;20285;-74
2022/04/28 11:08:55;;;;;;;;;;;;;;;18.11;29.24;97380.00;5093566;28;19956;-74
2022/04/28 11:11:21;;;;;;;;;;;;;;;18.09;30.32;97398.00;5092679;28;19964;-75
2022/04/28 11:13:56;;;;;;;;;;;;;;;18.24;31.88;97401.69;5093353;28;20300;-74
2022/04/28 11:16:22;;;;;;;;;;;;;;;18.58;31.98;97392.84;5093101;28;19968;-74
2022/04/28 11:18:48;;;;;;;;;;;;;;;18.85;29.91;97383.13;5093741;28;20415;-74
2022/04/28 11:21:15;;;;;;;;;;;;;;;19.00;31.45;97395.81;5097219;28;19949;-74
2022/04/28 11:23:45;;;;;;;;;;;;;;;19.07;29.68;97387.63;5078909;28;19973;-74
2022/04/28 11:26:12;;;;;;;;;;;;;;;19.01;31.30;97389.44;5096959;28;19957;-79
2022/04/28 11:28:38;;;;;;;;;;;;;;;19.14;30.35;97374.16;5096949;28;20319;-74
2022/04/28 11:31:09;;;;;;;;;;;;;;;19.33;29.11;97382.59;5096739;28;19954;-74
2022/04/28 11:33:38;;;;;;;;;;;;;;;19.35;30.58;97373.28;5096789;28;19954;-74
2022/04/28 11:36:13;;;;;;;;;;;;;;;19.27;29.14;97376.41;5096791;28;19963;-74
2022/04/28 11:38:47;;;;;;;;;;;;;;;19.22;31.10;97397.63;5097206;28;19961;-74
2022/04/28 11:41:13;;;;;;;;;;;;;;;18.99;29.44;97380.91;5096869;28;19956;-74
2022/04/28 11:43:38;;;;;;;;;;;;;;;18.99;30.69;97388.88;5096892;28;19949;-74
2022/04/28 11:46:05;;;;;;;;;;;;;;;18.97;30.82;97377.69;5097085;28;20297;-73
2022/04/28 11:48:32;;;;;;;;;;;;;;;18.87;30.41;97382.88;5079130;28;19949;-74
2022/04/28 11:51:02;;;;;;;;;;;;;;;18.80;31.70;97384.94;5096942;28;19960;-74
2022/04/28 11:53:38;;;;;;;;;;;;;;;18.98;30.98;97399.75;5096451;28;19952;-74
2022/04/28 11:56:17;;;;;;;;;;;;;;;18.76;30.00;97384.59;5096976;28;19960;-74
2022/04/28 11:58:48;;;;;;;;;;;;;;;18.80;29.88;97375.09;5096289;28;20039;-74
2022/04/28 12:01:14;;;;;;;;;;;;;;;18.90;30.87;97386.88;5096386;28;20406;-73
2022/04/28 12:04:01;;;;;;;;;;;;;;;19.15;32.16;97381.06;5088810;28;20440;-74
2022/04/28 12:06:27;;;;;;;;;;;;;;;19.47;31.07;97383.78;5096303;28;19950;-74
2022/04/28 12:08:58;;;;;;;;;;;;;;;19.73;31.95;97384.84;5078497;28;19958;-74
2022/04/28 12:14:22;;;;;;;;;;;;;;;19.70;28.64;97365.88;5096216;28;19954;-74
2022/04/28 12:19:46;;;;;;;;;;;;;;;18.92;28.51;97379.47;5096191;28;19948;-74
2022/04/28 12:22:13;;;;;;;;;;;;;;;18.59;27.74;97381.97;5096314;28;19958;-74
2022/04/28 12:24:41;;;;;;;;;;;;;;;18.48;28.20;97377.59;5095434;28;19955;-74
2022/04/28 12:27:07;;;;;;;;;;;;;;;18.71;30.87;97389.84;5095982;28;19949;-74
2022/04/28 12:29:52;;;;;;;;;;;;;;;18.97;30.61;97383.00;5095925;28;19957;-74
2022/04/28 12:32:19;;;;;;;;;;;;;;;18.99;28.66;97377.44;5095154;28;19969;-74
2022/04/28 12:35:06;;;;;;;;;;;;;;;18.99;28.30;97385.41;5083347;28;19958;-74
2022/04/28 12:37:31;;;;;;;;;;;;;;;19.04;28.08;97370.31;5078814;28;19950;-74
2022/04/28 12:40:02;;;;;;;;;;;;;;;19.23;29.16;97385.94;5096354;28;19952;-74
2022/04/28 12:42:43;;;;;;;;;;;;;;;19.37;28.88;97381.81;5077671;28;19955;-74
2022/04/28 12:45:09;;;;;;;;;;;;;;;19.31;28.26;97376.72;5095826;28;19950;-74
2022/04/28 12:47:49;;;;;;;;;;;;;;;19.22;30.24;97373.69;5095699;28;19965;-74
2022/04/28 12:50:22;;;;;;;;;;;;;;;19.42;29.29;97373.09;5095330;28;19951;-74
2022/04/28 12:52:48;;;;;;;;;;;;;;;19.61;30.45;97373.53;5095651;28;19971;-74
2022/04/28 12:55:14;;;;;;;;;;;;;;;19.76;29.76;97372.88;5095506;28;19954;-74
2022/04/28 12:57:41;;;;;;;;;;;;;;;19.90;29.16;97363.41;5095742;28;19957;-74
2022/04/28 13:00:07;;;;;;;;;;;;;;;19.88;26.12;97349.53;5095306;28;19964;-74
2022/04/28 13:02:33;;;;;;;;;;;;;;;19.63;28.45;97363.44;5095655;28;19951;-74
2022/04/28 13:05:09;;;;;;;;;;;;;;;19.64;27.97;97355.19;5095451;28;19980;-74
2022/04/28 13:07:35;;;;;;;;;;;;;;;19.60;28.72;97355.97;5095731;28;19961;-74
2022/04/28 13:10:01;;;;;;;;;;;;;;;19.57;27.88;97357.28;5094912;28;19958;-73
2022/04/28 13:12:27;;;;;;;;;;;;;;;19.65;30.35;97359.47;5095190;28;19977;-74
2022/04/28 13:14:53;;;;;;;;;;;;;;;19.81;29.27;97344.44;5095007;28;19956;-74
2022/04/28 13:17:19;;;;;;;;;;;;;;;19.90;28.44;97336.78;5093746;28;19968;-74
2022/04/28 13:19:45;;;;;;;;;;;;;;;20.05;30.39;97346.72;5095033;28;19985;-74
2022/04/28 13:22:11;;;;;;;;;;;;;;;20.21;30.11;97339.66;5094887;28;19959;-74
2022/04/28 13:24:36;;;;;;;;;;;;;;;20.12;27.28;97333.22;5095233;28;20015;-74
2022/04/28 13:27:02;;;;;;;;;;;;;;;20.03;27.08;97339.03;5094785;28;19970;-75